sensor_id;sensor_type;location;lat;lon;timestamp;P1;durP1;ratioP1;P2;durP2;ratioP2
12040;SDS011;6081;48.734;9.108;2022-07-29T00:03:58;3.50;;;2.83;;
12040;SDS011;6081;48.734;9.108;2022-07-29T00:14:00;3.20;;;2.90;;
12040;SDS011;6081;48.734;9.108;2022-07-29T00:24:03;3.67;;;3.20;;
12040;SDS011;6081;48.734;9.108;2022-07-29T00:34:06;3.40;;;3.10;;
12040;SDS011;6081;48.734;9.108;2022-07-29T00:44:29;3.03;;;2.83;;
12040;SDS011;6081;48.734;9.108;2022-07-29T00:54:31;2.83;;;2.63;;
12040;SDS011;6081;48.734;9.108;2022-07-29T01:04:35;2.63;;;2.43;;
12040;SDS011;6081;48.734;9.108;2022-07-29T01:14:37;2.77;;;2.53;;
12040;SDS011;6081;48.734;9.108;2022-07-29T01:24:46;2.63;;;2.43;;
12040;SDS011;6081;48.734;9.108;2022-07-29T01:35:08;2.30;;;2.10;;
12040;SDS011;6081;48.734;9.108;2022-07-29T01:45:17;2.43;;;2.00;;
12040;SDS011;6081;48.734;9.108;2022-07-29T01:55:24;2.20;;;2.00;;
12040;SDS011;6081;48.734;9.108;2022-07-29T02:05:30;2.00;;;1.90;;
12040;SDS011;6081;48.734;9.108;2022-07-29T02:15:34;2.83;;;1.90;;
12040;SDS011;6081;48.734;9.108;2022-07-29T02:25:37;1.70;;;1.60;;
12040;SDS011;6081;48.734;9.108;2022-07-29T02:35:41;1.70;;;1.60;;
12040;SDS011;6081;48.734;9.108;2022-07-29T02:45:44;2.20;;;2.10;;
12040;SDS011;6081;48.734;9.108;2022-07-29T02:55:54;1.93;;;1.83;;
12040;SDS011;6081;48.734;9.108;2022-07-29T03:05:58;2.30;;;2.10;;
12040;SDS011;6081;48.734;9.108;2022-07-29T03:16:03;3.10;;;2.17;;
12040;SDS011;6081;48.734;9.108;2022-07-29T03:26:06;2.13;;;1.80;;
12040;SDS011;6081;48.734;9.108;2022-07-29T03:36:09;2.30;;;2.13;;
12040;SDS011;6081;48.734;9.108;2022-07-29T03:46:12;2.23;;;2.03;;
12040;SDS011;6081;48.734;9.108;2022-07-29T03:56:18;2.50;;;2.30;;
12040;SDS011;6081;48.734;9.108;2022-07-29T04:06:23;2.10;;;1.90;;
12040;SDS011;6081;48.734;9.108;2022-07-29T04:16:27;2.50;;;2.03;;
12040;SDS011;6081;48.734;9.108;2022-07-29T04:26:29;2.43;;;2.10;;
12040;SDS011;6081;48.734;9.108;2022-07-29T04:36:32;1.70;;;1.60;;
12040;SDS011;6081;48.734;9.108;2022-07-29T04:46:34;1.43;;;1.33;;
12040;SDS011;6081;48.734;9.108;2022-07-29T04:56:38;1.83;;;1.17;;
12040;SDS011;6081;48.734;9.108;2022-07-29T05:06:40;1.20;;;1.10;;
12040;SDS011;6081;48.734;9.108;2022-07-29T05:16:43;5.23;;;1.17;;
12040;SDS011;6081;48.734;9.108;2022-07-29T05:26:45;2.50;;;1.20;;
12040;SDS011;6081;48.734;9.108;2022-07-29T05:36:48;1.23;;;1.13;;
12040;SDS011;6081;48.734;9.108;2022-07-29T05:46:51;1.50;;;1.40;;
12040;SDS011;6081;48.734;9.108;2022-07-29T05:56:54;2.07;;;1.50;;
12040;SDS011;6081;48.734;9.108;2022-07-29T06:06:56;1.47;;;1.30;;
12040;SDS011;6081;48.734;9.108;2022-07-29T06:16:59;1.30;;;1.20;;
12040;SDS011;6081;48.734;9.108;2022-07-29T06:27:01;2.43;;;1.63;;
12040;SDS011;6081;48.734;9.108;2022-07-29T06:37:06;1.47;;;1.37;;
12040;SDS011;6081;48.734;9.108;2022-07-29T06:47:08;1.50;;;1.40;;
12040;SDS011;6081;48.734;9.108;2022-07-29T06:57:12;1.73;;;1.63;;
12040;SDS011;6081;48.734;9.108;2022-07-29T07:07:13;2.00;;;1.80;;
12040;SDS011;6081;48.734;9.108;2022-07-29T07:17:17;1.67;;;1.57;;
12040;SDS011;6081;48.734;9.108;2022-07-29T07:27:18;2.63;;;1.97;;
12040;SDS011;6081;48.734;9.108;2022-07-29T07:37:22;1.80;;;1.70;;
12040;SDS011;6081;48.734;9.108;2022-07-29T07:47:24;4.60;;;1.70;;
12040;SDS011;6081;48.734;9.108;2022-07-29T07:57:28;2.30;;;2.07;;
12040;SDS011;6081;48.734;9.108;2022-07-29T08:07:29;2.30;;;2.03;;
12040;SDS011;6081;48.734;9.108;2022-07-29T08:17:33;2.20;;;2.00;;
12040;SDS011;6081;48.734;9.108;2022-07-29T08:27:34;2.80;;;2.20;;
12040;SDS011;6081;48.734;9.108;2022-07-29T08:37:38;2.20;;;2.07;;
12040;SDS011;6081;48.734;9.108;2022-07-29T08:47:40;2.57;;;2.37;;
12040;SDS011;6081;48.734;9.108;2022-07-29T08:57:43;2.23;;;2.10;;
12040;SDS011;6081;48.734;9.108;2022-07-29T09:07:46;3.53;;;2.20;;
12040;SDS011;6081;48.734;9.108;2022-07-29T09:17:49;3.40;;;2.40;;
12040;SDS011;6081;48.734;9.108;2022-07-29T09:27:51;3.00;;;2.60;;
12040;SDS011;6081;48.734;9.108;2022-07-29T09:37:54;2.90;;;2.70;;
12040;SDS011;6081;48.734;9.108;2022-07-29T09:47:57;2.80;;;2.60;;
12040;SDS011;6081;48.734;9.108;2022-07-29T10:08:24;4.27;;;2.50;;
12040;SDS011;6081;48.734;9.108;2022-07-29T10:18:28;3.87;;;3.20;;
12040;SDS011;6081;48.734;9.108;2022-07-29T10:28:31;2.90;;;2.70;;
12040;SDS011;6081;48.734;9.108;2022-07-29T10:38:44;2.73;;;2.53;;
12040;SDS011;6081;48.734;9.108;2022-07-29T11:09:31;3.50;;;2.77;;
12040;SDS011;6081;48.734;9.108;2022-07-29T11:19:35;4.00;;;2.50;;
12040;SDS011;6081;48.734;9.108;2022-07-29T11:29:51;5.60;;;4.20;;
12040;SDS011;6081;48.734;9.108;2022-07-29T11:50:29;4.87;;;3.97;;
12040;SDS011;6081;48.734;9.108;2022-07-29T12:00:35;4.13;;;3.80;;
12040;SDS011;6081;48.734;9.108;2022-07-29T12:10:38;5.70;;;3.77;;
12040;SDS011;6081;48.734;9.108;2022-07-29T12:20:43;5.53;;;3.53;;
12040;SDS011;6081;48.734;9.108;2022-07-29T12:30:46;5.43;;;3.63;;
12040;SDS011;6081;48.734;9.108;2022-07-29T12:40:51;3.90;;;3.23;;
12040;SDS011;6081;48.734;9.108;2022-07-29T12:50:54;4.17;;;3.63;;
12040;SDS011;6081;48.734;9.108;2022-07-29T13:01:06;3.73;;;3.20;;
12040;SDS011;6081;48.734;9.108;2022-07-29T13:11:26;3.53;;;3.10;;
12040;SDS011;6081;48.734;9.108;2022-07-29T13:21:30;3.20;;;3.00;;
12040;SDS011;6081;48.734;9.108;2022-07-29T13:31:32;3.63;;;3.33;;
12040;SDS011;6081;48.734;9.108;2022-07-29T13:41:35;4.17;;;3.77;;
12040;SDS011;6081;48.734;9.108;2022-07-29T13:51:37;5.10;;;4.10;;
12040;SDS011;6081;48.734;9.108;2022-07-29T14:01:41;5.17;;;4.50;;
12040;SDS011;6081;48.734;9.108;2022-07-29T14:11:43;4.60;;;4.10;;
12040;SDS011;6081;48.734;9.108;2022-07-29T14:21:47;4.63;;;4.23;;
12040;SDS011;6081;48.734;9.108;2022-07-29T14:31:49;5.97;;;4.33;;
12040;SDS011;6081;48.734;9.108;2022-07-29T14:41:52;4.87;;;4.37;;
12040;SDS011;6081;48.734;9.108;2022-07-29T14:51:54;6.23;;;4.47;;
12040;SDS011;6081;48.734;9.108;2022-07-29T15:01:57;4.00;;;3.70;;
12040;SDS011;6081;48.734;9.108;2022-07-29T15:11:59;4.47;;;3.53;;
12040;SDS011;6081;48.734;9.108;2022-07-29T15:22:03;6.67;;;4.90;;
12040;SDS011;6081;48.734;9.108;2022-07-29T15:32:06;4.30;;;3.97;;
12040;SDS011;6081;48.734;9.108;2022-07-29T15:42:09;4.57;;;4.17;;
12040;SDS011;6081;48.734;9.108;2022-07-29T15:52:11;6.10;;;4.07;;
12040;SDS011;6081;48.734;9.108;2022-07-29T16:02:14;4.60;;;3.97;;
12040;SDS011;6081;48.734;9.108;2022-07-29T16:12:16;4.80;;;4.03;;
12040;SDS011;6081;48.734;9.108;2022-07-29T16:22:20;5.60;;;4.87;;
12040;SDS011;6081;48.734;9.108;2022-07-29T16:32:21;5.60;;;5.10;;
12040;SDS011;6081;48.734;9.108;2022-07-29T16:42:25;4.60;;;4.20;;
12040;SDS011;6081;48.734;9.108;2022-07-29T16:52:27;5.80;;;5.23;;
12040;SDS011;6081;48.734;9.108;2022-07-29T17:02:30;4.90;;;4.50;;
12040;SDS011;6081;48.734;9.108;2022-07-29T17:12:32;5.27;;;4.77;;
12040;SDS011;6081;48.734;9.108;2022-07-29T17:22:36;4.63;;;4.27;;
12040;SDS011;6081;48.734;9.108;2022-07-29T17:32:39;5.40;;;4.27;;
12040;SDS011;6081;48.734;9.108;2022-07-29T17:42:42;4.27;;;3.83;;
12040;SDS011;6081;48.734;9.108;2022-07-29T17:52:44;4.87;;;3.57;;
12040;SDS011;6081;48.734;9.108;2022-07-29T18:02:47;3.67;;;3.37;;
12040;SDS011;6081;48.734;9.108;2022-07-29T18:12:49;3.70;;;2.97;;
12040;SDS011;6081;48.734;9.108;2022-07-29T18:22:53;3.13;;;2.93;;
12040;SDS011;6081;48.734;9.108;2022-07-29T18:32:55;4.63;;;3.17;;
12040;SDS011;6081;48.734;9.108;2022-07-29T18:42:58;2.77;;;2.57;;
12040;SDS011;6081;48.734;9.108;2022-07-29T18:53:00;2.33;;;2.13;;
12040;SDS011;6081;48.734;9.108;2022-07-29T19:03:05;3.67;;;2.63;;
12040;SDS011;6081;48.734;9.108;2022-07-29T19:13:07;2.23;;;2.13;;
12040;SDS011;6081;48.734;9.108;2022-07-29T19:23:10;2.73;;;2.43;;
12040;SDS011;6081;48.734;9.108;2022-07-29T19:33:12;2.50;;;2.30;;
12040;SDS011;6081;48.734;9.108;2022-07-29T19:43:17;2.77;;;2.10;;
12040;SDS011;6081;48.734;9.108;2022-07-29T19:53:19;2.80;;;2.50;;
12040;SDS011;6081;48.734;9.108;2022-07-29T20:03:23;2.00;;;1.83;;
12040;SDS011;6081;48.734;9.108;2022-07-29T20:13:25;1.90;;;1.80;;
12040;SDS011;6081;48.734;9.108;2022-07-29T20:23:28;2.03;;;1.87;;
12040;SDS011;6081;48.734;9.108;2022-07-29T20:33:30;2.27;;;2.07;;
12040;SDS011;6081;48.734;9.108;2022-07-29T20:43:33;2.83;;;2.03;;
12040;SDS011;6081;48.734;9.108;2022-07-29T20:53:36;2.20;;;1.63;;
12040;SDS011;6081;48.734;9.108;2022-07-29T21:03:40;1.80;;;1.70;;
12040;SDS011;6081;48.734;9.108;2022-07-29T21:13:42;2.47;;;2.27;;
12040;SDS011;6081;48.734;9.108;2022-07-29T21:23:45;3.13;;;2.57;;
12040;SDS011;6081;48.734;9.108;2022-07-29T21:33:47;1.87;;;1.77;;
12040;SDS011;6081;48.734;9.108;2022-07-29T21:43:51;2.30;;;2.10;;
12040;SDS011;6081;48.734;9.108;2022-07-29T21:53:53;1.73;;;1.63;;
12040;SDS011;6081;48.734;9.108;2022-07-29T22:03:56;2.47;;;1.70;;
12040;SDS011;6081;48.734;9.108;2022-07-29T22:13:58;2.60;;;1.80;;
12040;SDS011;6081;48.734;9.108;2022-07-29T22:24:02;2.27;;;2.07;;
12040;SDS011;6081;48.734;9.108;2022-07-29T22:34:04;2.73;;;1.97;;
12040;SDS011;6081;48.734;9.108;2022-07-29T22:44:13;1.90;;;1.80;;
12040;SDS011;6081;48.734;9.108;2022-07-29T22:54:17;2.80;;;2.37;;
12040;SDS011;6081;48.734;9.108;2022-07-29T23:04:20;2.10;;;1.87;;
12040;SDS011;6081;48.734;9.108;2022-07-29T23:14:22;1.83;;;1.73;;
12040;SDS011;6081;48.734;9.108;2022-07-29T23:24:26;2.23;;;2.03;;
12040;SDS011;6081;48.734;9.108;2022-07-29T23:34:27;2.13;;;1.80;;
12040;SDS011;6081;48.734;9.108;2022-07-29T23:44:31;1.93;;;1.60;;
12040;SDS011;6081;48.734;9.108;2022-07-29T23:54:32;2.13;;;1.90;;
